KGSH/GSH METAR and TAF weather

Enter ICAO airport designator
Station Type Date Time Source
KGSH METAR 2021/05/11 00:53 UTC NOAA

KGSH 110053Z AUTO 34008KT 10SM FEW110 08/01 A3016 RMK AO2 SLP216 T00830011


Station Type Date Time Source
KGSH Decoded METAR 2021/05/11 00:53 UTC NOAA

GOSHEN MUNICIPAL AIRPORT, IN, United States (KGSH) 41-32N 85-47W 252M
May 10, 2021 - 08:53 PM EDT / 2021.05.11 0053 UTC
Wind: from the NNW (340 degrees) at 9 MPH (8 KT):0
Visibility: 10 mile(s):0
Sky conditions: mostly clear
Temperature: 46.9 F (8.3 C)
Dew Point: 34.0 F (1.1 C)
Relative Humidity: 60%
Pressure (altimeter): 30.16 in. Hg (1021 hPa)
ob: KGSH 110053Z AUTO 34008KT 10SM FEW110 08/01 A3016 RMK AO2 SLP216 T00830011
cycle: 1

Station Type Date Time Source
KGSH TAF UTC NOAA

Error!

Example: see airport list